WAT5332 EFHK-LROP
Flight info
| Callsign | WAT5332 |
|---|---|
| Flight time | 2h 10m |
| Altitude | 34000 |
| Route | KOIVU Y123 LARTI DCT ORTAX/N0490F360 DCT LUTAL P870 BERIL/N0489F350 DCT SUWGI/N0488F360 DCT TOXAR/N0484F370 DCT LIBGA/N0478F360 DCT ROBTU/N0471F370 DCT KENIN DCT DENAK |
| Aircraft | B77L/H-SDE1E2E3FGHIJ2J3J4J5M1RWXY/LB1D1 |
Departure
| Time | 2026-04-26 05:49 |
|---|---|
| Airport | Helsinki Vantaa Airport (EFHK) |
Arrival
| Time | 2026-04-26 08:00 |
|---|---|
| Airport | Bucharest Henri Coandă International Airport (LROP) |
| Time | Latitude | Longitude | Altitude | Speed | Heading |
|---|---|---|---|---|---|
| 2026-04-26 05:18 | 60.31079 | 24.99088 | 158 ft | 0 kts | 63° |
| 2026-04-26 05:41 | 60.31078 | 24.99084 | 157 ft | 3 kts | 63° |
| 2026-04-26 05:42 | 60.31069 | 24.99035 | 157 ft | 4 kts | 82° |
| 2026-04-26 05:42 | 60.31070 | 24.98983 | 157 ft | 4 kts | 114° |
| 2026-04-26 05:42 | 60.31082 | 24.98950 | 156 ft | 1 kts | 153° |
| 2026-04-26 05:42 | 60.31083 | 24.98950 | 156 ft | 2 kts | 153° |
| 2026-04-26 05:46 | 60.31073 | 24.98960 | 156 ft | 4 kts | 153° |
| 2026-04-26 05:46 | 60.31028 | 24.99005 | 156 ft | 11 kts | 154° |
| 2026-04-26 05:46 | 60.30946 | 24.99089 | 156 ft | 14 kts | 153° |
| 2026-04-26 05:47 | 60.30850 | 24.99176 | 156 ft | 14 kts | 173° |
| 2026-04-26 05:47 | 60.30798 | 24.99080 | 157 ft | 5 kts | 241° |
| 2026-04-26 05:47 | 60.30783 | 24.99024 | 157 ft | 5 kts | 243° |
| 2026-04-26 05:47 | 60.30768 | 24.98968 | 158 ft | 5 kts | 243° |
| 2026-04-26 05:48 | 60.30754 | 24.98910 | 160 ft | 5 kts | 243° |
| 2026-04-26 05:48 | 60.30742 | 24.98850 | 162 ft | 5 kts | 260° |
| 2026-04-26 05:48 | 60.30755 | 24.98788 | 163 ft | 5 kts | 307° |
| 2026-04-26 05:48 | 60.30783 | 24.98750 | 162 ft | 4 kts | 332° |
| 2026-04-26 05:49 | 60.30843 | 24.98689 | 160 ft | 25 kts | 334° |
| 2026-04-26 05:49 | 60.32032 | 24.97480 | 292 ft | 144 kts | 333° |
| 2026-04-26 05:49 | 60.32916 | 24.96600 | 1130 ft | 139 kts | 334° |
| 2026-04-26 05:50 | 60.33685 | 24.95560 | 2141 ft | 131 kts | 327° |
| 2026-04-26 05:50 | 60.34318 | 24.94122 | 2818 ft | 149 kts | 319° |
| 2026-04-26 05:50 | 60.34944 | 24.92143 | 3056 ft | 183 kts | 308° |
| 2026-04-26 05:50 | 60.35405 | 24.89473 | 3414 ft | 221 kts | 291° |
| 2026-04-26 05:51 | 60.35354 | 24.86090 | 3971 ft | 259 kts | 264° |
| 2026-04-26 05:51 | 60.34545 | 24.82693 | 4825 ft | 279 kts | 247° |
| 2026-04-26 05:51 | 60.33837 | 24.80490 | 5394 ft | 285 kts | 246° |
| 2026-04-26 05:51 | 60.32777 | 24.77084 | 6350 ft | 288 kts | 248° |
| 2026-04-26 05:52 | 60.31768 | 24.73585 | 7352 ft | 289 kts | 249° |
| 2026-04-26 05:52 | 60.30787 | 24.70045 | 8346 ft | 290 kts | 248° |
| 2026-04-26 05:52 | 60.29559 | 24.66750 | 9115 ft | 307 kts | 223° |
| 2026-04-26 05:52 | 60.27587 | 24.64946 | 9953 ft | 320 kts | 191° |
| 2026-04-26 05:53 | 60.25342 | 24.64365 | 10425 ft | 336 kts | 189° |
| 2026-04-26 05:53 | 60.22936 | 24.63568 | 10688 ft | 365 kts | 191° |
| 2026-04-26 05:53 | 60.20345 | 24.62593 | 11078 ft | 389 kts | 192° |
| 2026-04-26 05:53 | 60.17663 | 24.61558 | 12096 ft | 395 kts | 192° |
| 2026-04-26 05:54 | 60.14955 | 24.60515 | 13346 ft | 396 kts | 192° |
| 2026-04-26 05:54 | 60.12252 | 24.59479 | 14539 ft | 396 kts | 192° |
| 2026-04-26 05:54 | 60.09518 | 24.58432 | 15532 ft | 401 kts | 191° |
| 2026-04-26 05:54 | 60.06805 | 24.57606 | 16754 ft | 393 kts | 182° |
| 2026-04-26 05:55 | 60.04090 | 24.58231 | 17449 ft | 396 kts | 166° |
| 2026-04-26 05:55 | 60.01384 | 24.59540 | 18184 ft | 406 kts | 165° |
| 2026-04-26 05:55 | 59.98586 | 24.60808 | 18709 ft | 418 kts | 166° |
| 2026-04-26 05:55 | 59.95706 | 24.62025 | 19393 ft | 426 kts | 167° |
| 2026-04-26 05:56 | 59.92791 | 24.63209 | 20243 ft | 428 kts | 168° |
| 2026-04-26 05:56 | 59.89861 | 24.64377 | 21065 ft | 433 kts | 167° |
| 2026-04-26 05:56 | 59.86866 | 24.65573 | 21717 ft | 440 kts | 168° |
| 2026-04-26 05:56 | 59.83846 | 24.66305 | 22492 ft | 442 kts | 182° |
| 2026-04-26 05:57 | 59.80812 | 24.65263 | 23069 ft | 445 kts | 196° |
| 2026-04-26 05:57 | 59.77820 | 24.63561 | 23684 ft | 450 kts | 196° |
| 2026-04-26 05:57 | 59.74756 | 24.61946 | 24052 ft | 462 kts | 195° |
| 2026-04-26 05:57 | 59.71657 | 24.60453 | 24627 ft | 467 kts | 194° |
| 2026-04-26 05:58 | 59.68454 | 24.58961 | 25040 ft | 477 kts | 194° |
| 2026-04-26 05:58 | 59.65190 | 24.57612 | 25594 ft | 482 kts | 191° |
| 2026-04-26 05:58 | 59.61869 | 24.56567 | 26225 ft | 485 kts | 190° |
| 2026-04-26 05:58 | 59.58515 | 24.55517 | 26747 ft | 491 kts | 191° |
| 2026-04-26 05:59 | 59.55125 | 24.54443 | 27250 ft | 497 kts | 191° |
| 2026-04-26 05:59 | 59.51680 | 24.53342 | 27652 ft | 506 kts | 191° |
| 2026-04-26 05:59 | 59.48193 | 24.52223 | 28165 ft | 510 kts | 191° |
| 2026-04-26 05:59 | 59.44670 | 24.51090 | 28596 ft | 516 kts | 191° |
| 2026-04-26 06:00 | 59.41116 | 24.49950 | 29068 ft | 521 kts | 191° |
| 2026-04-26 06:00 | 59.37525 | 24.48800 | 29581 ft | 523 kts | 191° |
| 2026-04-26 06:00 | 59.33924 | 24.47651 | 30101 ft | 524 kts | 191° |
| 2026-04-26 06:00 | 59.30335 | 24.46509 | 30662 ft | 523 kts | 191° |
| 2026-04-26 06:01 | 59.26747 | 24.45370 | 31238 ft | 521 kts | 191° |
| 2026-04-26 06:01 | 59.23172 | 24.44238 | 31778 ft | 521 kts | 191° |
| 2026-04-26 06:01 | 59.19594 | 24.43105 | 32282 ft | 521 kts | 191° |
| 2026-04-26 06:01 | 59.16021 | 24.41976 | 32869 ft | 518 kts | 191° |
| 2026-04-26 06:02 | 59.12473 | 24.40858 | 33459 ft | 515 kts | 191° |
| 2026-04-26 06:02 | 59.08939 | 24.39748 | 33672 ft | 515 kts | 191° |
| 2026-04-26 06:02 | 59.05391 | 24.38634 | 33650 ft | 518 kts | 191° |
| 2026-04-26 06:03 | 58.98262 | 24.36403 | 33623 ft | 518 kts | 191° |
| 2026-04-26 06:03 | 58.91158 | 24.34190 | 33641 ft | 516 kts | 191° |
| 2026-04-26 06:04 | 58.84074 | 24.31932 | 33649 ft | 515 kts | 193° |
| 2026-04-26 06:04 | 58.77097 | 24.28884 | 33658 ft | 514 kts | 195° |
| 2026-04-26 06:05 | 58.70122 | 24.25765 | 33646 ft | 515 kts | 195° |
| 2026-04-26 06:05 | 58.63124 | 24.22683 | 33671 ft | 517 kts | 195° |
| 2026-04-26 06:06 | 58.56104 | 24.19630 | 33686 ft | 518 kts | 195° |
| 2026-04-26 06:06 | 58.49009 | 24.16561 | 34140 ft | 524 kts | 195° |
| 2026-04-26 06:06 | 58.45464 | 24.15033 | 34583 ft | 521 kts | 195° |
| 2026-04-26 06:07 | 58.41980 | 24.13534 | 35011 ft | 519 kts | 195° |
| 2026-04-26 06:07 | 58.38460 | 24.12022 | 35450 ft | 517 kts | 195° |
| 2026-04-26 06:07 | 58.34945 | 24.10514 | 35708 ft | 520 kts | 195° |
| 2026-04-26 06:08 | 58.27873 | 24.07487 | 35691 ft | 520 kts | 195° |
| 2026-04-26 06:08 | 58.20847 | 24.04497 | 35694 ft | 515 kts | 194° |
| 2026-04-26 06:09 | 58.13860 | 24.01532 | 35692 ft | 514 kts | 195° |
| 2026-04-26 06:09 | 58.06870 | 23.98577 | 35719 ft | 516 kts | 195° |
| 2026-04-26 06:10 | 57.99854 | 23.95623 | 35721 ft | 517 kts | 195° |
| 2026-04-26 06:10 | 57.92825 | 23.92678 | 35713 ft | 518 kts | 195° |
| 2026-04-26 06:11 | 57.85761 | 23.89906 | 35711 ft | 519 kts | 193° |
| 2026-04-26 06:11 | 57.78632 | 23.87693 | 35722 ft | 519 kts | 192° |
| 2026-04-26 06:12 | 57.71508 | 23.85393 | 35715 ft | 520 kts | 192° |
| 2026-04-26 06:12 | 57.64390 | 23.83041 | 35731 ft | 519 kts | 192° |
| 2026-04-26 06:13 | 57.57277 | 23.80728 | 35715 ft | 520 kts | 192° |
| 2026-04-26 06:13 | 57.50174 | 23.78424 | 35729 ft | 523 kts | 192° |
| 2026-04-26 06:14 | 57.42992 | 23.76102 | 35724 ft | 525 kts | 192° |
| 2026-04-26 06:14 | 57.35789 | 23.73783 | 35736 ft | 525 kts | 192° |
| 2026-04-26 06:15 | 57.28605 | 23.71479 | 35732 ft | 523 kts | 192° |
| 2026-04-26 06:15 | 57.21449 | 23.69192 | 35725 ft | 521 kts | 192° |
| 2026-04-26 06:16 | 57.14317 | 23.66921 | 35726 ft | 519 kts | 192° |
| 2026-04-26 06:16 | 57.07203 | 23.64664 | 35733 ft | 518 kts | 192° |
| 2026-04-26 06:17 | 57.00099 | 23.62419 | 35734 ft | 517 kts | 192° |
| 2026-04-26 06:17 | 56.93007 | 23.60186 | 35745 ft | 518 kts | 192° |
| 2026-04-26 06:18 | 56.85897 | 23.57956 | 35744 ft | 518 kts | 192° |
| 2026-04-26 06:18 | 56.78784 | 23.55734 | 35736 ft | 519 kts | 192° |
| 2026-04-26 06:19 | 56.71659 | 23.53517 | 35737 ft | 520 kts | 193° |
| 2026-04-26 06:19 | 56.64515 | 23.51302 | 35744 ft | 521 kts | 193° |
| 2026-04-26 06:20 | 56.57360 | 23.49093 | 35756 ft | 522 kts | 192° |
| 2026-04-26 06:20 | 56.50195 | 23.46889 | 35754 ft | 523 kts | 192° |
| 2026-04-26 06:21 | 56.43015 | 23.44689 | 35759 ft | 523 kts | 192° |
| 2026-04-26 06:21 | 56.35885 | 23.42512 | 35757 ft | 523 kts | 192° |
| 2026-04-26 06:22 | 56.28676 | 23.40627 | 35767 ft | 524 kts | 190° |
| 2026-04-26 06:22 | 56.21451 | 23.38972 | 35762 ft | 523 kts | 190° |
| 2026-04-26 06:23 | 56.14237 | 23.37302 | 35782 ft | 523 kts | 190° |
| 2026-04-26 06:23 | 56.07028 | 23.35588 | 35812 ft | 522 kts | 191° |
| 2026-04-26 06:24 | 55.99821 | 23.33860 | 35803 ft | 522 kts | 191° |
| 2026-04-26 06:24 | 55.92627 | 23.32142 | 35795 ft | 521 kts | 191° |
| 2026-04-26 06:25 | 55.85439 | 23.30435 | 35803 ft | 521 kts | 191° |
| 2026-04-26 06:25 | 55.78257 | 23.28737 | 35803 ft | 521 kts | 191° |
| 2026-04-26 06:26 | 55.71063 | 23.27043 | 35796 ft | 521 kts | 191° |
| 2026-04-26 06:26 | 55.63867 | 23.25355 | 35788 ft | 522 kts | 191° |
| 2026-04-26 06:27 | 55.56659 | 23.23670 | 35794 ft | 523 kts | 191° |
| 2026-04-26 06:27 | 55.49432 | 23.21986 | 35794 ft | 524 kts | 191° |
| 2026-04-26 06:28 | 55.42189 | 23.20306 | 35772 ft | 525 kts | 191° |
| 2026-04-26 06:28 | 55.34986 | 23.18641 | 35795 ft | 526 kts | 191° |
| 2026-04-26 06:29 | 55.27721 | 23.16967 | 35796 ft | 527 kts | 191° |
| 2026-04-26 06:29 | 55.20441 | 23.15297 | 35808 ft | 528 kts | 191° |
| 2026-04-26 06:30 | 55.13162 | 23.13634 | 35810 ft | 527 kts | 191° |
| 2026-04-26 06:30 | 55.05911 | 23.11984 | 35813 ft | 525 kts | 191° |
| 2026-04-26 06:31 | 54.98678 | 23.10342 | 35816 ft | 523 kts | 191° |
| 2026-04-26 06:31 | 54.91465 | 23.08710 | 35816 ft | 522 kts | 191° |
| 2026-04-26 06:32 | 54.84259 | 23.07086 | 35810 ft | 522 kts | 191° |
| 2026-04-26 06:32 | 54.77054 | 23.05468 | 35827 ft | 523 kts | 191° |
| 2026-04-26 06:33 | 54.69826 | 23.03850 | 35838 ft | 524 kts | 191° |
| 2026-04-26 06:33 | 54.62588 | 23.02236 | 35802 ft | 525 kts | 191° |
| 2026-04-26 06:34 | 54.55328 | 23.00624 | 35828 ft | 527 kts | 191° |
| 2026-04-26 06:34 | 54.48046 | 22.99012 | 35857 ft | 528 kts | 191° |
| 2026-04-26 06:35 | 54.40744 | 22.97402 | 35852 ft | 530 kts | 191° |
| 2026-04-26 06:35 | 54.33473 | 22.95805 | 35835 ft | 530 kts | 192° |
| 2026-04-26 06:36 | 54.26155 | 22.94202 | 35841 ft | 530 kts | 192° |
| 2026-04-26 06:36 | 54.18846 | 22.92609 | 35849 ft | 529 kts | 192° |
| 2026-04-26 06:37 | 54.11560 | 22.91024 | 35850 ft | 527 kts | 192° |
| 2026-04-26 06:37 | 54.04295 | 22.89418 | 35858 ft | 525 kts | 193° |
| 2026-04-26 06:38 | 53.97070 | 22.87580 | 35850 ft | 525 kts | 193° |
| 2026-04-26 06:38 | 53.89846 | 22.85676 | 35855 ft | 526 kts | 193° |
| 2026-04-26 06:39 | 53.82611 | 22.83805 | 35862 ft | 527 kts | 193° |
| 2026-04-26 06:39 | 53.75354 | 22.81964 | 35870 ft | 527 kts | 193° |
| 2026-04-26 06:40 | 53.68095 | 22.80135 | 35876 ft | 528 kts | 193° |
| 2026-04-26 06:40 | 53.62054 | 22.78617 | 35878 ft | 528 kts | 193° |
| 2026-04-26 06:41 | 53.53559 | 22.76487 | 35872 ft | 528 kts | 193° |
| 2026-04-26 06:41 | 53.47510 | 22.74974 | 35885 ft | 529 kts | 193° |
| 2026-04-26 06:42 | 53.40219 | 22.73155 | 35892 ft | 530 kts | 193° |
| 2026-04-26 06:42 | 53.32930 | 22.71347 | 35843 ft | 528 kts | 193° |
| 2026-04-26 06:43 | 53.25668 | 22.69552 | 35879 ft | 527 kts | 193° |
| 2026-04-26 06:43 | 53.18422 | 22.67763 | 35887 ft | 526 kts | 193° |
| 2026-04-26 06:44 | 53.11175 | 22.65980 | 35895 ft | 526 kts | 193° |
| 2026-04-26 06:44 | 53.03923 | 22.64204 | 35884 ft | 527 kts | 194° |
| 2026-04-26 06:45 | 52.96657 | 22.62429 | 35904 ft | 529 kts | 194° |
| 2026-04-26 06:45 | 52.89366 | 22.60654 | 35901 ft | 530 kts | 194° |
| 2026-04-26 06:46 | 52.82103 | 22.58893 | 35862 ft | 532 kts | 194° |
| 2026-04-26 06:46 | 52.74771 | 22.57122 | 35911 ft | 533 kts | 194° |
| 2026-04-26 06:47 | 52.67430 | 22.55353 | 35930 ft | 534 kts | 194° |
| 2026-04-26 06:47 | 52.60075 | 22.53597 | 35922 ft | 535 kts | 193° |
| 2026-04-26 06:48 | 52.52672 | 22.52125 | 36442 ft | 533 kts | 192° |
| 2026-04-26 06:48 | 52.48999 | 22.51470 | 36919 ft | 531 kts | 192° |
| 2026-04-26 06:48 | 52.45307 | 22.50810 | 36913 ft | 534 kts | 192° |
| 2026-04-26 06:49 | 52.37968 | 22.49471 | 36922 ft | 527 kts | 192° |
| 2026-04-26 06:49 | 52.30708 | 22.48115 | 36895 ft | 524 kts | 192° |
| 2026-04-26 06:50 | 52.23473 | 22.46750 | 36926 ft | 524 kts | 192° |
| 2026-04-26 06:50 | 52.16269 | 22.45396 | 36937 ft | 525 kts | 192° |
| 2026-04-26 06:51 | 52.08996 | 22.44038 | 36940 ft | 527 kts | 192° |
| 2026-04-26 06:51 | 51.98055 | 22.42010 | 36959 ft | 529 kts | 193° |
| 2026-04-26 06:52 | 51.90735 | 22.40657 | 36950 ft | 530 kts | 193° |
| 2026-04-26 06:52 | 51.83401 | 22.39307 | 36908 ft | 531 kts | 193° |
| 2026-04-26 06:53 | 51.76061 | 22.37961 | 36992 ft | 531 kts | 193° |
| 2026-04-26 06:53 | 51.68726 | 22.36620 | 36977 ft | 530 kts | 193° |
| 2026-04-26 06:54 | 51.61414 | 22.35288 | 36967 ft | 528 kts | 193° |
| 2026-04-26 06:54 | 51.54133 | 22.33966 | 36939 ft | 525 kts | 193° |
| 2026-04-26 06:55 | 51.46932 | 22.32661 | 36966 ft | 524 kts | 193° |
| 2026-04-26 06:55 | 51.39695 | 22.31352 | 36974 ft | 523 kts | 193° |
| 2026-04-26 06:56 | 51.32457 | 22.30047 | 36983 ft | 523 kts | 193° |
| 2026-04-26 06:56 | 51.25215 | 22.28747 | 36980 ft | 524 kts | 193° |
| 2026-04-26 06:57 | 51.17963 | 22.27449 | 36983 ft | 525 kts | 193° |
| 2026-04-26 06:57 | 51.10707 | 22.26155 | 36988 ft | 525 kts | 193° |
| 2026-04-26 06:58 | 51.03444 | 22.24866 | 36993 ft | 525 kts | 193° |
| 2026-04-26 06:58 | 50.96184 | 22.23577 | 37022 ft | 525 kts | 193° |
| 2026-04-26 06:59 | 50.88918 | 22.22293 | 37007 ft | 525 kts | 193° |
| 2026-04-26 06:59 | 50.81674 | 22.21016 | 36978 ft | 522 kts | 194° |
| 2026-04-26 07:00 | 50.74489 | 22.19550 | 37013 ft | 520 kts | 196° |
| 2026-04-26 07:00 | 50.67326 | 22.17969 | 37018 ft | 520 kts | 196° |
| 2026-04-26 07:01 | 50.60155 | 22.16409 | 36965 ft | 520 kts | 196° |
| 2026-04-26 07:01 | 50.52976 | 22.14882 | 37005 ft | 521 kts | 196° |
| 2026-04-26 07:02 | 50.45785 | 22.13368 | 37015 ft | 523 kts | 196° |
| 2026-04-26 07:02 | 50.38562 | 22.11851 | 36962 ft | 524 kts | 196° |
| 2026-04-26 07:03 | 50.31341 | 22.10340 | 37015 ft | 524 kts | 196° |
| 2026-04-26 07:03 | 50.24115 | 22.08830 | 37020 ft | 524 kts | 196° |
| 2026-04-26 07:04 | 50.16885 | 22.07324 | 37048 ft | 524 kts | 196° |
| 2026-04-26 07:04 | 50.09674 | 22.05829 | 37014 ft | 521 kts | 196° |
| 2026-04-26 07:05 | 50.02555 | 22.04358 | 37019 ft | 519 kts | 196° |
| 2026-04-26 07:05 | 49.95405 | 22.02882 | 37015 ft | 517 kts | 196° |
| 2026-04-26 07:06 | 49.88286 | 22.01416 | 36975 ft | 514 kts | 196° |
| 2026-04-26 07:06 | 49.81207 | 21.99965 | 37003 ft | 512 kts | 196° |
| 2026-04-26 07:07 | 49.74145 | 21.98518 | 37001 ft | 511 kts | 196° |
| 2026-04-26 07:07 | 49.67094 | 21.97077 | 36944 ft | 510 kts | 196° |
| 2026-04-26 07:08 | 49.60092 | 21.95657 | 36994 ft | 506 kts | 196° |
| 2026-04-26 07:08 | 49.53131 | 21.94245 | 36990 ft | 504 kts | 196° |
| 2026-04-26 07:09 | 49.46186 | 21.92839 | 36945 ft | 503 kts | 196° |
| 2026-04-26 07:09 | 49.39267 | 21.91443 | 36989 ft | 501 kts | 196° |
| 2026-04-26 07:11 | 49.22038 | 21.87984 | 36938 ft | 498 kts | 196° |
| 2026-04-26 07:11 | 49.15168 | 21.86611 | 36983 ft | 498 kts | 196° |
| 2026-04-26 07:12 | 49.08292 | 21.85239 | 36996 ft | 499 kts | 196° |
| 2026-04-26 07:12 | 49.01392 | 21.83869 | 36986 ft | 501 kts | 196° |
| 2026-04-26 07:13 | 48.94519 | 21.82507 | 36983 ft | 502 kts | 195° |
| 2026-04-26 07:13 | 48.87419 | 21.81980 | 36974 ft | 515 kts | 185° |
| 2026-04-26 07:14 | 48.80287 | 21.83287 | 36962 ft | 522 kts | 178° |
| 2026-04-26 07:14 | 48.73108 | 21.84929 | 36965 ft | 521 kts | 178° |
| 2026-04-26 07:15 | 48.65918 | 21.86492 | 36971 ft | 522 kts | 179° |
| 2026-04-26 07:15 | 48.58712 | 21.88005 | 36963 ft | 524 kts | 179° |
| 2026-04-26 07:16 | 48.51489 | 21.89515 | 36929 ft | 524 kts | 178° |
| 2026-04-26 07:16 | 48.44276 | 21.91029 | 36950 ft | 523 kts | 178° |
| 2026-04-26 07:17 | 48.37189 | 21.93662 | 36943 ft | 534 kts | 160° |
| 2026-04-26 07:17 | 48.33917 | 21.96341 | 36958 ft | 539 kts | 149° |
| 2026-04-26 07:17 | 48.30968 | 21.99842 | 36949 ft | 542 kts | 138° |
| 2026-04-26 07:18 | 48.25626 | 22.07831 | 36928 ft | 542 kts | 136° |
| 2026-04-26 07:18 | 48.20310 | 22.15822 | 36950 ft | 541 kts | 137° |
| 2026-04-26 07:19 | 48.14945 | 22.23707 | 36950 ft | 540 kts | 137° |
| 2026-04-26 07:19 | 48.09548 | 22.31521 | 36953 ft | 540 kts | 137° |
| 2026-04-26 07:20 | 48.04139 | 22.39311 | 36949 ft | 540 kts | 137° |
| 2026-04-26 07:20 | 47.98724 | 22.47097 | 36942 ft | 541 kts | 137° |
| 2026-04-26 07:21 | 47.93341 | 22.54823 | 36909 ft | 541 kts | 137° |
| 2026-04-26 07:21 | 47.87886 | 22.62630 | 36943 ft | 540 kts | 138° |
| 2026-04-26 07:22 | 47.82499 | 22.70316 | 36945 ft | 540 kts | 138° |
| 2026-04-26 07:22 | 47.77074 | 22.78031 | 36940 ft | 539 kts | 138° |
| 2026-04-26 07:23 | 47.71644 | 22.85729 | 36938 ft | 539 kts | 138° |
| 2026-04-26 07:23 | 47.66218 | 22.93399 | 36946 ft | 538 kts | 139° |
| 2026-04-26 07:24 | 47.60751 | 23.00947 | 36923 ft | 535 kts | 142° |
| 2026-04-26 07:24 | 47.55026 | 23.07907 | 36928 ft | 531 kts | 144° |
| 2026-04-26 07:25 | 47.49263 | 23.14706 | 36921 ft | 528 kts | 144° |
| 2026-04-26 07:25 | 47.43558 | 23.21488 | 36919 ft | 524 kts | 144° |
| 2026-04-26 07:26 | 47.37916 | 23.28246 | 36916 ft | 521 kts | 143° |
| 2026-04-26 07:26 | 47.32293 | 23.34981 | 36914 ft | 520 kts | 144° |
| 2026-04-26 07:27 | 47.26691 | 23.41670 | 36891 ft | 516 kts | 143° |
| 2026-04-26 07:27 | 47.21125 | 23.48294 | 36894 ft | 513 kts | 143° |
| 2026-04-26 07:28 | 47.15586 | 23.54862 | 36915 ft | 510 kts | 143° |
| 2026-04-26 07:28 | 47.10059 | 23.61398 | 36886 ft | 509 kts | 143° |
| 2026-04-26 07:29 | 47.04539 | 23.67910 | 36909 ft | 509 kts | 144° |
| 2026-04-26 07:29 | 46.99006 | 23.74417 | 36886 ft | 510 kts | 143° |
| 2026-04-26 07:30 | 46.93462 | 23.80922 | 36886 ft | 511 kts | 143° |
| 2026-04-26 07:30 | 46.88844 | 23.86327 | 36890 ft | 512 kts | 143° |
| 2026-04-26 07:31 | 46.82360 | 23.93895 | 36894 ft | 515 kts | 143° |
| 2026-04-26 07:31 | 46.76749 | 24.00425 | 36901 ft | 517 kts | 143° |
| 2026-04-26 07:32 | 46.71118 | 24.06960 | 36877 ft | 518 kts | 143° |
| 2026-04-26 07:32 | 46.66386 | 24.12435 | 36893 ft | 519 kts | 143° |
| 2026-04-26 07:33 | 46.60727 | 24.18971 | 36907 ft | 519 kts | 143° |
| 2026-04-26 07:33 | 46.55060 | 24.25497 | 36903 ft | 520 kts | 143° |
| 2026-04-26 07:34 | 46.49392 | 24.32006 | 36903 ft | 519 kts | 143° |
| 2026-04-26 07:34 | 46.43729 | 24.38490 | 36911 ft | 519 kts | 143° |
| 2026-04-26 07:35 | 46.38074 | 24.44949 | 36891 ft | 516 kts | 143° |
| 2026-04-26 07:35 | 46.32489 | 24.51311 | 36891 ft | 513 kts | 143° |
| 2026-04-26 07:36 | 46.26895 | 24.57666 | 36894 ft | 510 kts | 143° |
| 2026-04-26 07:36 | 46.21312 | 24.63990 | 36894 ft | 509 kts | 143° |
| 2026-04-26 07:37 | 46.15746 | 24.70279 | 36894 ft | 507 kts | 143° |
| 2026-04-26 07:37 | 46.10196 | 24.76534 | 36890 ft | 506 kts | 143° |
| 2026-04-26 07:38 | 46.04651 | 24.82766 | 36902 ft | 505 kts | 143° |
| 2026-04-26 07:38 | 45.99120 | 24.88966 | 36802 ft | 500 kts | 143° |
| 2026-04-26 07:38 | 45.96427 | 24.91982 | 36242 ft | 483 kts | 143° |
| 2026-04-26 07:39 | 45.93789 | 24.94931 | 34883 ft | 482 kts | 143° |
| 2026-04-26 07:39 | 45.91109 | 24.97921 | 33007 ft | 493 kts | 143° |
| 2026-04-26 07:39 | 45.88375 | 25.00966 | 30931 ft | 502 kts | 143° |
| 2026-04-26 07:39 | 45.85578 | 25.04077 | 29913 ft | 506 kts | 143° |
| 2026-04-26 07:40 | 45.82807 | 25.07158 | 29101 ft | 503 kts | 144° |
| 2026-04-26 07:40 | 45.80056 | 25.10215 | 28421 ft | 498 kts | 143° |
| 2026-04-26 07:40 | 45.77334 | 25.13236 | 27768 ft | 492 kts | 144° |
| 2026-04-26 07:40 | 45.74641 | 25.16220 | 27110 ft | 487 kts | 144° |
| 2026-04-26 07:41 | 45.71973 | 25.19173 | 26442 ft | 483 kts | 144° |
| 2026-04-26 07:41 | 45.69321 | 25.22103 | 25825 ft | 479 kts | 144° |
| 2026-04-26 07:41 | 45.66695 | 25.25001 | 25201 ft | 475 kts | 144° |
| 2026-04-26 07:41 | 45.64089 | 25.27874 | 24567 ft | 472 kts | 144° |
| 2026-04-26 07:42 | 45.61498 | 25.30725 | 23954 ft | 469 kts | 145° |
| 2026-04-26 07:42 | 45.58916 | 25.33562 | 23294 ft | 467 kts | 145° |
| 2026-04-26 07:42 | 45.56357 | 25.36372 | 22598 ft | 463 kts | 145° |
| 2026-04-26 07:42 | 45.53813 | 25.39163 | 21961 ft | 459 kts | 145° |
| 2026-04-26 07:43 | 45.51293 | 25.41923 | 21347 ft | 454 kts | 145° |
| 2026-04-26 07:43 | 45.48798 | 25.44655 | 20750 ft | 451 kts | 145° |
| 2026-04-26 07:43 | 45.46323 | 25.47363 | 20153 ft | 446 kts | 146° |
| 2026-04-26 07:43 | 45.43905 | 25.50001 | 19576 ft | 442 kts | 146° |
| 2026-04-26 07:44 | 45.41482 | 25.52643 | 19013 ft | 438 kts | 146° |
| 2026-04-26 07:44 | 45.39063 | 25.55277 | 18452 ft | 435 kts | 146° |
| 2026-04-26 07:44 | 45.36663 | 25.57889 | 17801 ft | 434 kts | 146° |
| 2026-04-26 07:44 | 45.34274 | 25.60485 | 17158 ft | 431 kts | 146° |
| 2026-04-26 07:45 | 45.31902 | 25.63060 | 16557 ft | 427 kts | 146° |
| 2026-04-26 07:45 | 45.29552 | 25.65609 | 15976 ft | 423 kts | 146° |
| 2026-04-26 07:45 | 45.27227 | 25.68132 | 15391 ft | 419 kts | 146° |
| 2026-04-26 07:45 | 45.24923 | 25.70628 | 14834 ft | 415 kts | 146° |
| 2026-04-26 07:46 | 45.22638 | 25.73098 | 14273 ft | 411 kts | 146° |
| 2026-04-26 07:46 | 45.20377 | 25.75538 | 13721 ft | 407 kts | 146° |
| 2026-04-26 07:46 | 45.18129 | 25.77964 | 13079 ft | 405 kts | 146° |
| 2026-04-26 07:46 | 45.15895 | 25.80372 | 12511 ft | 401 kts | 146° |
| 2026-04-26 07:47 | 45.13685 | 25.82751 | 11925 ft | 397 kts | 145° |
| 2026-04-26 07:47 | 45.11499 | 25.85102 | 11375 ft | 393 kts | 146° |
| 2026-04-26 07:47 | 45.09328 | 25.87432 | 10850 ft | 390 kts | 145° |
| 2026-04-26 07:47 | 45.07208 | 25.89713 | 10660 ft | 376 kts | 145° |
| 2026-04-26 07:48 | 45.05164 | 25.91910 | 10493 ft | 362 kts | 146° |
| 2026-04-26 07:48 | 45.03194 | 25.94025 | 10343 ft | 350 kts | 146° |
| 2026-04-26 07:48 | 45.01368 | 25.96193 | 10192 ft | 337 kts | 139° |
| 2026-04-26 07:48 | 44.99733 | 25.98486 | 10109 ft | 325 kts | 137° |
| 2026-04-26 07:49 | 44.98191 | 26.00733 | 9978 ft | 313 kts | 136° |
| 2026-04-26 07:49 | 44.96704 | 26.02915 | 9779 ft | 305 kts | 136° |
| 2026-04-26 07:49 | 44.95248 | 26.05058 | 9465 ft | 300 kts | 136° |
| 2026-04-26 07:50 | 44.92372 | 26.09212 | 8824 ft | 291 kts | 136° |
| 2026-04-26 07:50 | 44.90959 | 26.11218 | 8576 ft | 285 kts | 136° |
| 2026-04-26 07:50 | 44.89577 | 26.13172 | 8324 ft | 279 kts | 136° |
| 2026-04-26 07:50 | 44.88202 | 26.15109 | 8040 ft | 281 kts | 136° |
| 2026-04-26 07:51 | 44.86805 | 26.17066 | 7768 ft | 286 kts | 136° |
| 2026-04-26 07:51 | 44.85380 | 26.19053 | 7452 ft | 289 kts | 136° |
| 2026-04-26 07:51 | 44.83958 | 26.21024 | 7150 ft | 285 kts | 136° |
| 2026-04-26 07:51 | 44.82563 | 26.22957 | 6864 ft | 279 kts | 136° |
| 2026-04-26 07:52 | 44.81180 | 26.24851 | 6569 ft | 276 kts | 136° |
| 2026-04-26 07:52 | 44.79807 | 26.26716 | 6279 ft | 272 kts | 136° |
| 2026-04-26 07:52 | 44.78469 | 26.28527 | 5975 ft | 268 kts | 136° |
| 2026-04-26 07:52 | 44.77132 | 26.30345 | 5708 ft | 268 kts | 136° |
| 2026-04-26 07:53 | 44.75787 | 26.32198 | 5397 ft | 273 kts | 136° |
| 2026-04-26 07:53 | 44.74425 | 26.34086 | 5170 ft | 277 kts | 136° |
| 2026-04-26 07:53 | 44.73058 | 26.35999 | 4877 ft | 276 kts | 136° |
| 2026-04-26 07:53 | 44.71698 | 26.37924 | 4605 ft | 271 kts | 136° |
| 2026-04-26 07:54 | 44.70397 | 26.39774 | 4429 ft | 266 kts | 138° |
| 2026-04-26 07:54 | 44.68866 | 26.41048 | 4381 ft | 257 kts | 172° |
| 2026-04-26 07:54 | 44.67065 | 26.41088 | 4411 ft | 261 kts | 187° |
| 2026-04-26 07:54 | 44.65255 | 26.41061 | 4281 ft | 254 kts | 182° |
| 2026-04-26 07:55 | 44.63559 | 26.41183 | 4102 ft | 235 kts | 181° |
| 2026-04-26 07:55 | 44.61971 | 26.41146 | 4016 ft | 225 kts | 201° |
| 2026-04-26 07:55 | 44.60670 | 26.40067 | 3872 ft | 218 kts | 234° |
| 2026-04-26 07:55 | 44.60053 | 26.38220 | 3646 ft | 209 kts | 260° |
| 2026-04-26 07:56 | 44.59792 | 26.36248 | 3466 ft | 198 kts | 263° |
| 2026-04-26 07:56 | 44.59618 | 26.34375 | 3262 ft | 190 kts | 265° |
| 2026-04-26 07:56 | 44.59479 | 26.32557 | 3033 ft | 186 kts | 265° |
| 2026-04-26 07:56 | 44.59346 | 26.30796 | 2815 ft | 177 kts | 265° |
| 2026-04-26 07:57 | 44.59219 | 26.29092 | 2599 ft | 174 kts | 266° |
| 2026-04-26 07:57 | 44.59098 | 26.27450 | 2342 ft | 167 kts | 265° |
| 2026-04-26 07:57 | 44.58979 | 26.25886 | 2152 ft | 161 kts | 265° |
| 2026-04-26 07:57 | 44.58864 | 26.24353 | 1921 ft | 151 kts | 265° |
| 2026-04-26 07:58 | 44.58758 | 26.22974 | 1746 ft | 135 kts | 265° |
| 2026-04-26 07:58 | 44.58665 | 26.21715 | 1561 ft | 128 kts | 264° |
| 2026-04-26 07:58 | 44.58570 | 26.20437 | 1491 ft | 135 kts | 264° |
| 2026-04-26 07:58 | 44.58468 | 26.19111 | 1238 ft | 136 kts | 264° |
| 2026-04-26 07:59 | 44.58368 | 26.17834 | 1009 ft | 130 kts | 264° |
| 2026-04-26 07:59 | 44.58272 | 26.16559 | 905 ft | 133 kts | 264° |
| 2026-04-26 07:59 | 44.58176 | 26.15244 | 696 ft | 136 kts | 264° |
| 2026-04-26 07:59 | 44.58078 | 26.13937 | 490 ft | 134 kts | 263° |
| 2026-04-26 08:00 | 44.57980 | 26.12666 | 367 ft | 128 kts | 263° |
| 2026-04-26 08:00 | 44.57893 | 26.11497 | 327 ft | 100 kts | 264° |
| 2026-04-26 08:00 | 44.57846 | 26.10886 | 325 ft | 49 kts | 264° |
| 2026-04-26 08:00 | 44.57812 | 26.10448 | 323 ft | 35 kts | 264° |
| 2026-04-26 08:01 | 44.57787 | 26.10181 | 325 ft | 26 kts | 255° |
| 2026-04-26 08:01 | 44.57712 | 26.09958 | 322 ft | 12 kts | 235° |
| 2026-04-26 08:01 | 44.57676 | 26.09889 | 326 ft | 10 kts | 233° |
| 2026-04-26 08:01 | 44.57485 | 26.09251 | 324 ft | 34 kts | 300° |
| 2026-04-26 08:02 | 44.57536 | 26.09073 | 324 ft | 4 kts | 268° |
| 2026-04-26 08:02 | 44.57533 | 26.09029 | 327 ft | 5 kts | 265° |
| 2026-04-26 08:02 | 44.57528 | 26.08972 | 327 ft | 7 kts | 263° |
| 2026-04-26 08:02 | 44.57522 | 26.08902 | 325 ft | 8 kts | 263° |
| 2026-04-26 08:03 | 44.57516 | 26.08821 | 325 ft | 9 kts | 265° |
| 2026-04-26 08:03 | 44.57510 | 26.08729 | 323 ft | 10 kts | 265° |
| 2026-04-26 08:03 | 44.57502 | 26.08627 | 326 ft | 11 kts | 264° |
| 2026-04-26 08:03 | 44.57491 | 26.08518 | 324 ft | 12 kts | 247° |
| 2026-04-26 08:04 | 44.57420 | 26.08478 | 323 ft | 12 kts | 175° |
| 2026-04-26 08:04 | 44.57329 | 26.08490 | 326 ft | 14 kts | 175° |
| 2026-04-26 08:04 | 44.57230 | 26.08505 | 326 ft | 15 kts | 174° |
| 2026-04-26 08:04 | 44.57128 | 26.08520 | 325 ft | 15 kts | 174° |
| 2026-04-26 08:05 | 44.57022 | 26.08536 | 327 ft | 16 kts | 173° |
| 2026-04-26 08:05 | 44.56914 | 26.08552 | 323 ft | 16 kts | 174° |
| 2026-04-26 08:05 | 44.56804 | 26.08566 | 323 ft | 16 kts | 174° |
| 2026-04-26 08:05 | 44.56691 | 26.08585 | 324 ft | 17 kts | 173° |
| 2026-04-26 08:06 | 44.56586 | 26.08659 | 322 ft | 18 kts | 130° |
| 2026-04-26 08:06 | 44.56551 | 26.08825 | 324 ft | 19 kts | 84° |
| 2026-04-26 08:06 | 44.56565 | 26.09008 | 328 ft | 19 kts | 84° |
| 2026-04-26 08:06 | 44.56579 | 26.09199 | 324 ft | 21 kts | 84° |
| 2026-04-26 08:07 | 44.56595 | 26.09403 | 327 ft | 21 kts | 84° |
| 2026-04-26 08:07 | 44.56610 | 26.09606 | 327 ft | 21 kts | 84° |
| 2026-04-26 08:07 | 44.56625 | 26.09811 | 324 ft | 21 kts | 84° |
| 2026-04-26 08:07 | 44.56641 | 26.10018 | 326 ft | 21 kts | 84° |
| 2026-04-26 08:08 | 44.56656 | 26.10225 | 327 ft | 22 kts | 84° |
| 2026-04-26 08:08 | 44.56672 | 26.10440 | 327 ft | 23 kts | 84° |
| 2026-04-26 08:08 | 44.56687 | 26.10649 | 324 ft | 19 kts | 84° |
| 2026-04-26 08:08 | 44.56766 | 26.10763 | 323 ft | 19 kts | 0° |
| 2026-04-26 08:09 | 44.56899 | 26.10745 | 324 ft | 19 kts | 354° |
| 2026-04-26 08:09 | 44.57017 | 26.10676 | 322 ft | 19 kts | 303° |
| 2026-04-26 08:09 | 44.57067 | 26.10505 | 325 ft | 19 kts | 271° |
| 2026-04-26 08:09 | 44.57053 | 26.10331 | 324 ft | 12 kts | 264° |
| 2026-04-26 08:10 | 44.57034 | 26.10273 | 323 ft | 7 kts | 210° |
| 2026-04-26 08:10 | 44.56985 | 26.10276 | 324 ft | 6 kts | 173° |
| 2026-04-26 08:10 | 44.56973 | 26.10278 | 324 ft | 1 kts | 174° |
| 2026-04-26 08:10 | 44.56965 | 26.10279 | 326 ft | 0 kts | 174° |